Time;durP1;ratioP1;P1;durP2;ratioP2;P2;SDS_P1;SDS_P2;PMS_P1;PMS_P2;Temp;Humidity;BMP_temperature;BMP_pressure;BME280_temperature;BME280_humidity;BME280_pressure;Samples;Min_cycle;Max_cycle;Signal;HPM_P1;HPM_P2
2023/08/16 00:00:25;;;;;;;5.80;3.40;;;;;;;17.95;100.00;97574.63;5011408;28;20049;-61
2023/08/16 00:02:52;;;;;;;5.50;3.22;;;;;;;17.88;100.00;97572.25;5021789;28;20119;-60
2023/08/16 00:05:19;;;;;;;5.25;3.28;;;;;;;17.89;100.00;97571.16;5006273;28;20044;-59
2023/08/16 00:07:45;;;;;;;6.72;3.33;;;;;;;17.96;100.00;97569.94;5008231;28;20045;-61
2023/08/16 00:10:12;;;;;;;6.43;3.10;;;;;;;18.11;100.00;97558.81;5009373;28;20047;-59
2023/08/16 00:12:39;;;;;;;6.05;3.15;;;;;;;18.27;100.00;97553.91;5013299;28;20047;-61
2023/08/16 00:15:09;;;;;;;4.45;2.67;;;;;;;18.35;100.00;97537.91;5011286;28;20115;-61
2023/08/16 00:17:36;;;;;;;4.30;2.72;;;;;;;18.42;100.00;97530.91;5012261;28;20057;-61
2023/08/16 00:20:06;;;;;;;5.25;3.15;;;;;;;18.45;100.00;97526.75;5014981;28;20041;-59
2023/08/16 00:22:32;;;;;;;6.57;3.03;;;;;;;18.46;100.00;97526.47;5016497;28;20047;-59
2023/08/16 00:24:59;;;;;;;7.40;2.70;;;;;;;18.51;100.00;97531.06;5000128;28;20034;-59
2023/08/16 00:27:25;;;;;;;4.90;2.50;;;;;;;18.32;100.00;97536.56;4990624;28;20546;-60
2023/08/16 00:29:52;;;;;;;5.53;3.83;;;;;;;18.16;100.00;97552.44;5017521;28;20040;-61
2023/08/16 00:32:20;;;;;;;5.75;2.53;;;;;;;18.06;100.00;97542.44;5004316;28;21481;-61
2023/08/16 00:34:46;;;;;;;5.75;2.85;;;;;;;18.00;100.00;97546.34;5024565;28;20031;-60
2023/08/16 00:37:13;;;;;;;6.13;3.25;;;;;;;18.06;100.00;97539.69;5024900;28;20037;-59
2023/08/16 00:39:39;;;;;;;5.57;3.00;;;;;;;18.09;100.00;97530.09;4997393;28;20122;-60
2023/08/16 00:42:06;;;;;;;3.92;2.58;;;;;;;17.75;100.00;97534.63;4989664;28;20048;-61
2023/08/16 00:44:33;;;;;;;5.95;3.20;;;;;;;17.67;100.00;97542.41;5007175;28;20569;-61
2023/08/16 00:47:01;;;;;;;5.05;3.03;;;;;;;17.63;100.00;97537.81;5027326;28;20045;-60
2023/08/16 00:49:28;;;;;;;6.50;3.20;;;;;;;17.61;100.00;97543.56;5019566;28;20053;-60
2023/08/16 00:51:55;;;;;;;4.53;3.00;;;;;;;17.69;100.00;97539.34;5024390;28;20044;-59
2023/08/16 00:54:22;;;;;;;4.57;3.20;;;;;;;17.75;100.00;97537.38;5016844;28;20043;-59
2023/08/16 00:56:50;;;;;;;5.65;3.80;;;;;;;17.85;100.00;97530.94;5008896;28;20044;-60
2023/08/16 00:59:16;;;;;;;5.72;3.10;;;;;;;17.96;100.00;97516.00;5003499;28;20036;-61
2023/08/16 01:01:45;;;;;;;5.05;3.25;;;;;;;17.86;100.00;97516.13;5030335;28;20040;-60
2023/08/16 01:04:13;;;;;;;5.72;3.58;;;;;;;17.74;100.00;97509.19;5049133;28;20407;-59
2023/08/16 01:06:39;;;;;;;8.10;3.33;;;;;;;17.65;100.00;97511.75;4996708;28;20053;-59
2023/08/16 01:09:07;;;;;;;7.35;3.30;;;;;;;17.67;100.00;97519.69;5019537;28;20046;-60
2023/08/16 01:11:59;;;;;;;5.00;2.92;;;;;;;17.79;100.00;97513.75;5003193;28;20664;-58
2023/08/16 01:14:48;;;;;;;6.68;3.30;;;;;;;17.77;100.00;97499.56;5004014;28;20126;-59
2023/08/16 01:17:15;;;;;;;6.13;3.58;;;;;;;17.64;100.00;97492.88;5009752;28;20622;-61
2023/08/16 01:19:44;;;;;;;6.07;3.08;;;;;;;17.64;100.00;97499.19;5013942;28;20039;-60
2023/08/16 01:22:29;;;;;;;5.70;3.35;;;;;;;17.63;100.00;97494.84;5016014;28;20040;-60
2023/08/16 01:25:06;;;;;;;7.90;3.58;;;;;;;17.62;100.00;97498.66;5000835;28;20036;-59
2023/08/16 01:27:35;;;;;;;5.10;3.50;;;;;;;17.64;100.00;97509.31;5018189;28;20038;-60
2023/08/16 01:30:04;;;;;;;6.90;3.38;;;;;;;17.66;100.00;97507.13;4960249;28;20062;-59
2023/08/16 01:32:32;;;;;;;7.50;3.50;;;;;;;17.66;100.00;97502.44;4946534;28;20073;-61
2023/08/16 01:34:59;;;;;;;8.18;3.22;;;;;;;17.74;100.00;97497.41;5017951;28;20033;-61
2023/08/16 01:37:26;;;;;;;4.60;3.15;;;;;;;17.65;100.00;97502.72;5003061;28;20039;-60
2023/08/16 01:39:54;;;;;;;6.82;3.65;;;;;;;17.70;100.00;97508.16;4989079;28;20038;-59
2023/08/16 01:42:22;;;;;;;5.18;3.38;;;;;;;17.76;100.00;97503.41;5008087;28;20474;-60
2023/08/16 01:44:51;;;;;;;5.72;3.40;;;;;;;17.83;100.00;97500.31;5047315;28;20032;-60
2023/08/16 01:47:18;;;;;;;8.02;3.78;;;;;;;17.95;100.00;97489.72;5017391;28;20191;-60
2023/08/16 01:49:57;;;;;;;5.10;3.20;;;;;;;18.02;100.00;97492.09;5018282;28;20122;-59
2023/08/16 01:52:28;;;;;;;4.18;2.70;;;;;;;17.91;100.00;97492.22;5011717;28;20074;-60
2023/08/16 01:54:54;;;;;;;4.63;2.97;;;;;;;18.08;100.00;97482.69;4992124;28;20031;-59
2023/08/16 01:57:21;;;;;;;5.38;3.17;;;;;;;18.16;100.00;97481.19;4998359;28;20051;-60
2023/08/16 01:59:48;;;;;;;5.63;3.10;;;;;;;18.10;100.00;97485.94;5008991;28;20148;-58
2023/08/16 02:02:14;;;;;;;4.93;3.72;;;;;;;17.98;100.00;97475.41;4993544;28;20504;-59
2023/08/16 02:04:41;;;;;;;5.18;3.20;;;;;;;17.83;100.00;97483.88;5019097;28;20170;-59
2023/08/16 02:07:08;;;;;;;7.28;3.70;;;;;;;17.75;100.00;97488.06;5007376;28;20049;-60
2023/08/16 02:09:34;;;;;;;5.07;3.22;;;;;;;17.78;100.00;97479.28;5018070;28;20143;-61
2023/08/16 02:12:01;;;;;;;5.35;3.50;;;;;;;17.77;100.00;97483.94;5002030;28;20499;-60
2023/08/16 02:14:28;;;;;;;7.28;3.17;;;;;;;17.77;100.00;97475.72;5011471;28;20077;-60
2023/08/16 02:16:55;;;;;;;7.80;3.30;;;;;;;17.80;100.00;97480.59;5021746;28;20033;-60
2023/08/16 02:19:22;;;;;;;6.32;3.30;;;;;;;17.71;100.00;97468.69;5014666;28;20057;-60
2023/08/16 02:21:48;;;;;;;6.95;2.90;;;;;;;17.66;100.00;97466.03;5008909;28;20043;-61
2023/08/16 02:24:16;;;;;;;8.93;3.67;;;;;;;17.62;100.00;97476.75;4992756;28;20036;-60
2023/08/16 02:26:43;;;;;;;6.53;3.53;;;;;;;17.57;100.00;97482.31;5028270;28;20419;-60
2023/08/16 02:29:09;;;;;;;5.25;3.25;;;;;;;17.64;100.00;97487.41;4998615;28;20048;-61
2023/08/16 02:31:36;;;;;;;8.20;3.80;;;;;;;17.53;100.00;97484.84;5010155;28;20065;-61
2023/08/16 02:34:03;;;;;;;6.45;3.53;;;;;;;17.45;100.00;97495.63;5020021;28;20041;-59
2023/08/16 02:36:29;;;;;;;4.72;2.80;;;;;;;17.49;100.00;97488.44;5005566;28;20126;-61
2023/08/16 02:38:56;;;;;;;6.28;3.50;;;;;;;17.50;100.00;97488.16;5012977;28;20068;-61
2023/08/16 02:41:22;;;;;;;8.93;4.03;;;;;;;17.52;100.00;97474.19;5011992;28;20067;-59
2023/08/16 02:43:49;;;;;;;5.95;3.28;;;;;;;17.41;100.00;97479.81;5024628;28;20047;-61
2023/08/16 02:46:16;;;;;;;5.47;3.72;;;;;;;17.35;100.00;97471.94;4990177;28;20048;-60
2023/08/16 02:48:43;;;;;;;8.00;3.53;;;;;;;17.37;100.00;97467.81;5031436;28;20052;-61
2023/08/16 02:51:09;;;;;;;7.05;3.17;;;;;;;17.46;100.00;97473.44;5006168;28;20661;-61
2023/08/16 02:53:36;;;;;;;6.43;3.33;;;;;;;17.47;100.00;97469.56;4996290;28;20100;-59
2023/08/16 02:56:02;;;;;;;5.05;3.25;;;;;;;17.46;100.00;97464.41;5010385;28;20458;-59
2023/08/16 02:58:29;;;;;;;5.00;3.88;;;;;;;17.44;100.00;97472.91;5008007;28;20049;-60
2023/08/16 03:00:56;;;;;;;5.15;3.60;;;;;;;17.28;100.00;97475.84;5010584;28;20044;-60
2023/08/16 03:03:23;;;;;;;6.93;3.53;;;;;;;17.18;100.00;97488.84;5020483;28;20081;-60
2023/08/16 03:05:50;;;;;;;9.23;3.70;;;;;;;17.30;100.00;97483.78;4993789;28;20037;-60
2023/08/16 03:08:16;;;;;;;6.10;3.00;;;;;;;17.41;100.00;97476.25;4990385;28;20036;-61
2023/08/16 03:10:43;;;;;;;5.78;3.20;;;;;;;17.41;100.00;97476.25;4998764;28;20090;-59
2023/08/16 03:13:09;;;;;;;5.18;3.60;;;;;;;17.48;100.00;97482.16;5009694;28;20043;-59
2023/08/16 03:15:36;;;;;;;5.57;3.20;;;;;;;17.47;100.00;97480.53;5014034;28;20039;-60
2023/08/16 03:18:03;;;;;;;8.10;3.35;;;;;;;17.48;100.00;97482.16;5010419;28;20139;-59
2023/08/16 03:20:30;;;;;;;7.93;3.60;;;;;;;17.40;100.00;97493.78;4986742;28;20035;-60
2023/08/16 03:22:57;;;;;;;7.03;3.10;;;;;;;17.46;100.00;97508.22;4998428;28;20100;-59
2023/08/16 03:25:24;;;;;;;4.93;3.30;;;;;;;17.34;100.00;97511.34;5018482;28;20035;-61
2023/08/16 03:27:51;;;;;;;5.30;3.88;;;;;;;17.30;100.00;97524.81;4998652;28;20484;-60
2023/08/16 03:30:17;;;;;;;7.22;3.50;;;;;;;17.34;100.00;97531.34;4984805;28;20038;-60
2023/08/16 03:32:44;;;;;;;7.00;3.83;;;;;;;17.40;100.00;97549.31;5018493;28;20043;-59
2023/08/16 03:35:11;;;;;;;5.32;3.00;;;;;;;17.44;100.00;97560.50;5016411;28;20117;-61
2023/08/16 03:37:38;;;;;;;6.97;3.45;;;;;;;17.34;100.00;97566.09;4995906;28;20067;-58
2023/08/16 03:40:06;;;;;;;5.30;3.08;;;;;;;17.32;100.00;97584.72;5001523;28;20045;-61
2023/08/16 03:42:32;;;;;;;6.85;3.80;;;;;;;17.40;100.00;97609.53;5009841;28;20062;-59
2023/08/16 03:44:59;;;;;;;5.43;3.50;;;;;;;17.54;100.00;97603.34;5023599;28;20032;-59
2023/08/16 03:47:25;;;;;;;5.22;3.55;;;;;;;17.65;100.00;97610.34;5019559;28;20039;-60
2023/08/16 03:49:53;;;;;;;7.05;3.58;;;;;;;17.74;100.00;97596.81;4991364;28;20053;-60
2023/08/16 03:52:20;;;;;;;5.40;3.30;;;;;;;17.78;100.00;97592.38;4993936;28;20580;-59
2023/08/16 03:54:48;;;;;;;4.70;3.30;;;;;;;17.85;100.00;97592.03;5003854;28;20045;-60
2023/08/16 03:57:14;;;;;;;4.38;3.15;;;;;;;17.92;100.00;97591.66;4997703;28;20457;-59
2023/08/16 03:59:41;;;;;;;6.00;3.13;;;;;;;17.98;100.00;97578.72;4991068;28;20106;-61
2023/08/16 04:02:08;;;;;;;5.85;3.30;;;;;;;18.01;100.00;97584.41;5008758;28;20043;-59
2023/08/16 04:04:35;;;;;;;7.57;3.53;;;;;;;18.06;100.00;97587.06;5016990;28;20060;-61
2023/08/16 04:07:01;;;;;;;5.80;3.40;;;;;;;18.06;100.00;97575.31;5006688;28;20502;-61
2023/08/16 04:09:28;;;;;;;7.57;3.40;;;;;;;18.08;100.00;97570.34;5001604;28;20050;-60
2023/08/16 04:11:55;;;;;;;7.40;3.20;;;;;;;18.11;100.00;97568.94;4991368;28;20130;-61
2023/08/16 04:14:22;;;;;;;7.93;2.80;;;;;;;18.11;100.00;97564.28;5007167;28;20043;-59
2023/08/16 04:16:49;;;;;;;8.98;3.55;;;;;;;17.86;100.00;97559.94;5006535;28;20046;-60
2023/08/16 04:19:15;;;;;;;5.28;3.15;;;;;;;17.61;100.00;97573.69;5002708;28;20053;-60
2023/08/16 04:21:42;;;;;;;4.22;2.72;;;;;;;17.61;100.00;97565.47;4997863;28;20121;-60
2023/08/16 04:24:08;;;;;;;6.00;3.47;;;;;;;17.61;100.00;97568.22;5015907;28;20045;-59
2023/08/16 04:26:35;;;;;;;5.50;3.65;;;;;;;17.60;100.00;97566.59;4986424;28;20049;-60
2023/08/16 04:29:02;;;;;;;4.72;2.90;;;;;;;17.58;100.00;97566.06;4994640;28;20055;-59
2023/08/16 04:31:29;;;;;;;8.07;3.42;;;;;;;17.55;100.00;97574.88;5006711;28;20046;-59
2023/08/16 04:33:56;;;;;;;9.20;4.20;;;;;;;17.27;100.00;97585.59;4986454;28;20051;-59
2023/08/16 04:36:22;;;;;;;5.40;3.20;;;;;;;17.28;100.00;97571.63;4994923;28;20085;-59
2023/08/16 04:38:49;;;;;;;7.50;3.75;;;;;;;17.40;100.00;97565.72;5000417;28;20036;-60
2023/08/16 04:41:16;;;;;;;6.00;3.17;;;;;;;17.41;100.00;97544.66;5001455;28;20489;-60
2023/08/16 04:43:43;;;;;;;7.20;3.65;;;;;;;17.46;100.00;97533.66;5014501;28;20115;-59
2023/08/16 04:46:09;;;;;;;6.85;3.83;;;;;;;17.49;100.00;97526.75;5024066;28;20047;-59
2023/08/16 04:48:36;;;;;;;5.47;3.05;;;;;;;17.57;100.00;97514.38;5041264;28;20163;-60
2023/08/16 04:51:04;;;;;;;4.68;2.88;;;;;;;17.64;100.00;97510.16;4999324;28;20042;-59
2023/08/16 04:53:31;;;;;;;6.22;3.80;;;;;;;17.75;100.00;97510.81;4991083;28;20685;-61
2023/08/16 04:55:58;;;;;;;6.93;3.33;;;;;;;17.80;100.00;97504.47;4987562;28;20602;-59
2023/08/16 04:58:26;;;;;;;7.05;3.45;;;;;;;17.87;100.00;97496.66;5006220;28;20038;-60
2023/08/16 05:00:52;;;;;;;6.07;3.47;;;;;;;17.91;100.00;97491.44;4989374;28;20066;-64
2023/08/16 05:03:19;;;;;;;6.57;3.28;;;;;;;17.87;100.00;97490.38;4998717;28;20055;-64
2023/08/16 05:05:46;;;;;;;8.13;4.57;;;;;;;17.95;100.00;97495.19;4992257;28;20046;-63
2023/08/16 05:08:12;;;;;;;5.60;3.15;;;;;;;17.89;100.00;97488.97;5015420;28;20094;-64
2023/08/16 05:10:39;;;;;;;6.65;3.30;;;;;;;17.88;100.00;97494.75;5002474;28;20050;-64
2023/08/16 05:13:06;;;;;;;6.90;3.63;;;;;;;18.02;100.00;97497.56;4995466;28;20534;-63
2023/08/16 05:15:32;;;;;;;5.60;4.03;;;;;;;18.20;100.00;97501.38;5008543;28;20068;-64
2023/08/16 05:17:59;;;;;;;4.93;3.45;;;;;;;18.36;100.00;97503.88;4973271;28;20046;-63
2023/08/16 05:20:27;;;;;;;6.82;3.70;;;;;;;18.59;100.00;97507.59;4970916;28;20070;-64
2023/08/16 05:22:53;;;;;;;4.80;3.55;;;;;;;18.73;100.00;97521.34;5006307;28;20045;-63
2023/08/16 05:25:20;;;;;;;7.65;3.78;;;;;;;18.89;100.00;97518.31;5007837;28;20526;-63
2023/08/16 05:27:46;;;;;;;6.70;3.28;;;;;;;19.04;100.00;97523.50;5001576;28;20043;-64
2023/08/16 05:30:13;;;;;;;7.43;3.75;;;;;;;19.18;100.00;97519.97;5012192;28;20045;-60
2023/08/16 05:32:39;;;;;;;6.25;3.20;;;;;;;19.12;100.00;97521.22;5002384;28;20722;-60
2023/08/16 05:35:06;;;;;;;6.15;3.40;;;;;;;19.17;100.00;97512.88;5005936;28;20050;-59
2023/08/16 05:37:32;;;;;;;7.15;3.40;;;;;;;19.30;100.00;97520.28;4992742;28;20203;-61
2023/08/16 05:39:59;;;;;;;5.63;3.00;;;;;;;19.44;100.00;97523.03;5019281;28;20039;-61
2023/08/16 05:42:28;;;;;;;5.15;2.88;;;;;;;19.57;100.00;97518.63;5017782;28;20038;-61
2023/08/16 05:44:55;;;;;;;5.22;2.80;;;;;;;19.72;100.00;97525.72;5017796;28;20168;-61
2023/08/16 05:47:21;;;;;;;4.30;2.67;;;;;;;19.86;100.00;97528.44;5002665;28;20052;-61
2023/08/16 05:49:48;;;;;;;5.72;2.92;;;;;;;19.96;100.00;97529.31;4985416;28;20130;-61
2023/08/16 05:52:15;;;;;;;5.50;2.75;;;;;;;20.04;100.00;97531.34;5008018;28;20050;-60
2023/08/16 05:54:42;;;;;;;6.05;2.80;;;;;;;20.08;100.00;97534.31;5001366;28;20171;-61
2023/08/16 05:57:08;;;;;;;9.32;3.33;;;;;;;20.12;100.00;97536.13;5005859;28;20044;-61
2023/08/16 05:59:35;;;;;;;7.30;4.00;;;;;;;20.21;100.00;97527.94;5005206;28;20119;-61
2023/08/16 06:02:01;;;;;;;5.72;3.05;;;;;;;20.24;100.00;97537.50;5025024;28;20414;-61
2023/08/16 06:04:28;;;;;;;6.20;3.00;;;;;;;20.26;100.00;97538.81;4993953;28;20506;-60
2023/08/16 06:06:55;;;;;;;5.85;2.67;;;;;;;20.34;100.00;97540.00;5018680;28;20118;-61
2023/08/16 06:09:21;;;;;;;9.20;2.95;;;;;;;20.45;100.00;97531.50;5001230;28;20137;-61
2023/08/16 06:11:49;;;;;;;4.82;3.10;;;;;;;20.46;100.00;97524.88;5020830;28;20658;-61
2023/08/16 06:14:15;;;;;;;6.82;3.25;;;;;;;20.57;100.00;97526.25;5018635;28;20190;-61
2023/08/16 06:16:42;;;;;;;5.68;2.67;;;;;;;20.62;100.00;97522.53;5005329;28;20567;-61
2023/08/16 06:19:10;;;;;;;6.78;3.58;;;;;;;20.70;100.00;97520.97;4988087;28;20073;-61
2023/08/16 06:21:37;;;;;;;5.40;2.58;;;;;;;20.78;100.00;97525.69;5018821;28;20426;-61
2023/08/16 06:24:05;;;;;;;5.57;2.70;;;;;;;20.78;100.00;97523.78;5014068;28;20051;-60
2023/08/16 06:26:31;;;;;;;5.05;2.97;;;;;;;20.82;100.00;97532.19;5005597;28;20034;-60
2023/08/16 06:28:58;;;;;;;4.85;2.83;;;;;;;20.82;100.00;97531.41;5012179;28;20122;-61
2023/08/16 06:31:25;;;;;;;5.30;2.80;;;;;;;20.79;100.00;97538.34;5010947;28;20072;-61
2023/08/16 06:33:51;;;;;;;5.07;2.97;;;;;;;20.81;100.00;97547.09;4996303;28;20053;-61
2023/08/16 06:36:19;;;;;;;6.18;2.92;;;;;;;20.65;100.00;97541.19;5015990;28;20121;-61
2023/08/16 06:38:45;;;;;;;5.90;2.78;;;;;;;20.73;100.00;97543.16;5020287;28;20046;-60
2023/08/16 06:41:12;;;;;;;4.57;2.75;;;;;;;20.83;100.00;97535.78;5001437;28;20037;-62
2023/08/16 06:43:39;;;;;;;5.07;3.22;;;;;;;20.91;100.00;97543.28;5025198;28;20037;-61
2023/08/16 06:46:05;;;;;;;5.78;2.83;;;;;;;20.89;100.00;97540.84;5026893;28;20036;-60
2023/08/16 06:48:32;;;;;;;7.20;2.50;;;;;;;20.99;100.00;97531.50;4996445;28;20078;-60
2023/08/16 06:50:58;;;;;;;5.80;3.28;;;;;;;21.07;100.00;97540.94;4974778;28;20059;-61
2023/08/16 06:53:25;;;;;;;4.70;2.78;;;;;;;21.07;100.00;97545.63;4996309;28;20055;-60
2023/08/16 06:55:55;;;;;;;5.13;2.63;;;;;;;21.13;100.00;97536.91;5026042;28;20049;-61
2023/08/16 06:58:22;;;;;;;7.25;3.10;;;;;;;21.10;100.00;97534.78;5017796;28;20106;-61
2023/08/16 07:00:49;;;;;;;4.22;2.90;;;;;;;21.22;100.00;97536.94;5020441;28;20046;-61
2023/08/16 07:03:19;;;;;;;4.60;2.35;;;;;;;21.26;100.00;97540.69;4998714;28;20045;-61
2023/08/16 07:05:46;;;;;;;5.13;2.97;;;;;;;21.31;100.00;97534.22;4991685;28;20748;-61
2023/08/16 07:08:12;;;;;;;5.13;2.50;;;;;;;21.37;100.00;97534.91;5023705;28;20044;-60
2023/08/16 07:10:42;;;;;;;4.72;2.80;;;;;;;21.47;99.98;97542.03;5000281;28;20043;-61
2023/08/16 07:13:11;;;;;;;6.15;3.38;;;;;;;21.55;98.28;97538.50;4997558;28;20050;-62
2023/08/16 07:15:37;;;;;;;5.95;2.38;;;;;;;21.56;94.69;97540.13;5023650;28;20032;-60
2023/08/16 07:18:04;;;;;;;4.90;2.60;;;;;;;21.65;94.93;97546.47;5006428;28;20096;-60
2023/08/16 07:20:31;;;;;;;6.07;2.30;;;;;;;21.69;95.07;97538.38;4995152;28;20039;-60
2023/08/16 07:22:58;;;;;;;5.13;2.20;;;;;;;21.80;94.24;97536.97;5010066;28;20057;-60
2023/08/16 07:25:26;;;;;;;5.78;2.58;;;;;;;21.96;94.03;97541.97;4991615;28;20137;-61
2023/08/16 07:27:53;;;;;;;4.20;2.70;;;;;;;22.11;91.83;97545.41;5002380;28;20042;-61
2023/08/16 07:30:19;;;;;;;4.22;2.05;;;;;;;22.22;92.02;97539.25;4992684;28;20062;-60
2023/08/16 07:32:46;;;;;;;5.13;2.25;;;;;;;22.26;93.42;97539.38;4994893;28;20100;-60
2023/08/16 07:35:14;;;;;;;6.10;2.83;;;;;;;22.35;92.79;97533.88;4994687;28;20137;-60
2023/08/16 07:37:40;;;;;;;4.63;2.67;;;;;;;22.45;92.26;97544.56;4997165;28;20054;-61
2023/08/16 07:40:07;;;;;;;4.40;2.65;;;;;;;22.53;91.75;97540.19;5012883;28;20028;-61
2023/08/16 07:42:34;;;;;;;4.88;2.13;;;;;;;22.63;90.55;97546.53;5008804;28;20522;-60
2023/08/16 07:45:02;;;;;;;4.57;2.65;;;;;;;22.71;90.01;97545.69;5028665;28;20043;-61
2023/08/16 07:47:28;;;;;;;4.47;2.92;;;;;;;22.82;89.27;97551.69;5001473;28;20563;-61
2023/08/16 07:49:55;;;;;;;6.18;2.78;;;;;;;22.83;89.30;97542.25;5038098;28;20047;-61
2023/08/16 07:52:22;;;;;;;4.38;2.97;;;;;;;22.94;90.44;97549.06;5001200;28;20070;-61
2023/08/16 07:54:49;;;;;;;4.55;3.00;;;;;;;23.10;89.25;97540.22;5015710;28;20050;-60
2023/08/16 07:57:16;;;;;;;6.20;3.15;;;;;;;23.16;89.85;97543.59;5016304;28;20116;-61
2023/08/16 07:59:42;;;;;;;4.50;3.03;;;;;;;23.22;89.40;97539.53;5016656;28;20050;-61
2023/08/16 08:02:09;;;;;;;7.35;3.03;;;;;;;23.21;90.71;97552.50;5002792;28;20498;-60
2023/08/16 08:04:36;;;;;;;7.15;3.38;;;;;;;23.25;90.86;97547.13;5001036;28;20121;-61
2023/08/16 08:07:03;;;;;;;9.85;3.80;;;;;;;23.32;90.77;97550.19;5024428;28;20047;-61
2023/08/16 08:09:31;;;;;;;4.80;3.40;;;;;;;23.45;90.30;97553.91;5012731;28;20046;-60
2023/08/16 08:11:58;;;;;;;4.88;3.10;;;;;;;23.58;90.65;97545.72;5030707;28;20046;-60
2023/08/16 08:14:25;;;;;;;6.53;3.30;;;;;;;23.66;88.84;97546.81;5016655;28;20041;-60
2023/08/16 08:16:52;;;;;;;6.50;3.53;;;;;;;23.73;87.94;97547.88;4987515;28;20039;-61
2023/08/16 08:19:18;;;;;;;5.53;3.50;;;;;;;23.73;87.14;97558.94;4998336;28;20049;-60
2023/08/16 08:21:45;;;;;;;7.47;3.63;;;;;;;23.88;87.57;97556.75;5022152;28;20528;-61
2023/08/16 08:24:11;;;;;;;4.82;3.33;;;;;;;23.88;87.40;97557.53;5016486;28;20119;-60
2023/08/16 08:26:38;;;;;;;6.03;3.35;;;;;;;23.85;87.31;97552.69;5009190;28;20444;-60
2023/08/16 08:29:05;;;;;;;8.07;3.97;;;;;;;23.96;87.13;97550.34;4995990;28;20043;-60
2023/08/16 08:31:31;;;;;;;5.78;3.53;;;;;;;23.93;86.99;97556.53;4989806;28;20511;-61
2023/08/16 08:33:58;;;;;;;7.55;3.75;;;;;;;24.01;85.63;97552.91;5006052;28;20129;-61
2023/08/16 08:36:24;;;;;;;6.13;3.50;;;;;;;24.08;85.41;97541.31;5013596;28;20444;-61
2023/08/16 08:38:51;;;;;;;8.50;4.20;;;;;;;24.16;86.91;97547.94;5014326;28;20084;-60
2023/08/16 08:41:21;;;;;;;11.70;4.65;;;;;;;24.14;85.43;97547.47;5020003;28;20044;-61
2023/08/16 08:43:56;;;;;;;9.00;3.92;;;;;;;24.16;85.59;97550.69;5013341;28;20459;-61
2023/08/16 08:46:28;;;;;;;8.85;3.75;;;;;;;24.18;85.28;97556.72;5004761;28;20044;-61
2023/08/16 08:48:58;;;;;;;8.35;4.00;;;;;;;24.29;86.28;97548.81;4995271;28;20487;-61
2023/08/16 08:51:30;;;;;;;7.82;4.40;;;;;;;24.32;85.26;97556.41;5010157;28;20042;-61
2023/08/16 08:53:57;;;;;;;7.68;3.97;;;;;;;24.37;85.71;97550.69;5008992;28;20043;-62
2023/08/16 08:56:24;;;;;;;6.75;4.15;;;;;;;24.39;84.03;97553.09;5023805;28;20055;-61
2023/08/16 08:58:56;;;;;;;10.40;5.05;;;;;;;24.44;84.60;97555.69;5003188;28;20061;-61
2023/08/16 09:01:27;;;;;;;10.48;4.50;;;;;;;24.52;85.11;97554.78;4984597;28;20049;-61
2023/08/16 09:03:56;;;;;;;6.63;4.50;;;;;;;24.50;83.94;97545.19;5014082;28;20521;-61
2023/08/16 09:06:23;;;;;;;7.68;5.00;;;;;;;24.54;83.75;97549.72;5000129;28;20126;-61
2023/08/16 09:08:50;;;;;;;9.23;4.43;;;;;;;24.70;84.28;97539.94;4997626;28;20061;-60
2023/08/16 09:11:18;;;;;;;6.35;4.47;;;;;;;24.59;82.01;97548.69;5042463;28;20045;-60
2023/08/16 09:13:45;;;;;;;7.13;4.30;;;;;;;24.76;82.99;97547.69;5009979;28;20659;-60
2023/08/16 09:16:12;;;;;;;7.68;5.00;;;;;;;24.81;82.17;97539.16;5004220;28;20043;-62
2023/08/16 09:18:47;;;;;;;9.05;4.43;;;;;;;24.88;82.11;97543.38;4987493;28;20070;-61
2023/08/16 09:21:16;;;;;;;9.88;5.05;;;;;;;24.89;81.63;97533.91;5016039;28;20052;-60
2023/08/16 09:23:43;;;;;;;7.70;5.38;;;;;;;24.88;82.65;97535.06;4999928;28;20078;-61
2023/08/16 09:26:15;;;;;;;9.38;5.30;;;;;;;24.93;81.84;97532.91;5021046;28;20040;-60
2023/08/16 09:28:41;;;;;;;11.43;4.78;;;;;;;25.01;81.86;97533.13;5005038;28;20048;-61
2023/08/16 09:31:08;;;;;;;10.43;5.05;;;;;;;25.01;80.79;97533.13;5002822;28;20479;-60
2023/08/16 09:33:35;;;;;;;8.07;4.93;;;;;;;25.05;80.88;97529.31;5001489;28;20134;-60
2023/08/16 09:36:04;;;;;;;9.07;5.70;;;;;;;25.13;81.48;97532.34;5009646;28;20040;-60
2023/08/16 09:38:33;;;;;;;7.95;5.30;;;;;;;25.06;81.73;97533.72;4993194;28;20046;-61
2023/08/16 09:41:13;;;;;;;7.78;5.15;;;;;;;25.24;80.24;97521.63;5026385;28;20055;-61
2023/08/16 09:43:39;;;;;;;7.38;5.05;;;;;;;25.31;79.29;97521.81;5000016;28;20044;-60
2023/08/16 09:46:06;;;;;;;8.95;5.10;;;;;;;25.37;78.46;97523.22;4987233;28;20110;-61
2023/08/16 09:48:33;;;;;;;8.20;5.22;;;;;;;25.31;79.09;97521.81;5008981;28;20062;-61
2023/08/16 09:51:03;;;;;;;7.88;5.00;;;;;;;25.40;79.06;97519.78;5019979;28;20068;-61
2023/08/16 09:53:33;;;;;;;7.53;5.38;;;;;;;25.39;79.95;97523.66;4981576;28;20048;-61
2023/08/16 09:56:04;;;;;;;9.43;4.85;;;;;;;25.50;79.54;97518.47;5033361;28;20605;-60
2023/08/16 09:58:51;;;;;;;8.85;5.60;;;;;;;25.58;77.33;97514.00;5011650;28;20571;-61
2023/08/16 10:01:18;;;;;;;8.85;5.20;;;;;;;25.55;77.94;97518.25;5002253;28;20046;-62
2023/08/16 10:03:53;;;;;;;8.20;4.93;;;;;;;25.67;77.08;97516.63;5012159;28;20044;-61
2023/08/16 10:06:23;;;;;;;9.23;4.75;;;;;;;25.80;75.35;97526.53;5004173;28;20413;-60
2023/08/16 10:09:05;;;;;;;;;;;;;;;25.92;74.72;97520.19;4996352;28;20125;-61
2023/08/16 10:11:33;;;;;;;9.57;5.10;;;;;;;26.05;75.15;97523.72;5006533;28;19926;-60
2023/08/16 10:14:02;;;;;;;8.82;5.35;;;;;;;26.17;73.08;97522.84;4989022;28;20039;-60
2023/08/16 10:16:30;;;;;;;8.43;4.57;;;;;;;26.42;73.12;97516.44;4986321;28;20672;-61
2023/08/16 10:19:00;;;;;;;7.70;4.05;;;;;;;26.80;71.35;97522.59;5038538;28;20459;-61
2023/08/16 10:21:28;;;;;;;9.95;4.93;;;;;;;26.80;69.21;97523.41;5027176;28;20048;-60
2023/08/16 10:23:56;;;;;;;11.63;4.60;;;;;;;26.94;70.35;97516.63;5014481;28;20450;-60
2023/08/16 10:26:29;;;;;;;8.70;4.53;;;;;;;27.10;68.23;97509.13;5016919;28;20055;-61
2023/08/16 10:29:00;;;;;;;6.65;4.70;;;;;;;27.20;68.89;97512.53;4992331;28;20053;-62
2023/08/16 10:31:33;;;;;;;9.25;4.95;;;;;;;27.16;69.09;97503.28;4996409;28;20044;-60
2023/08/16 10:34:01;;;;;;;9.23;4.53;;;;;;;27.12;69.52;97503.22;5008183;28;20115;-60
2023/08/16 10:36:29;;;;;;;8.10;5.60;;;;;;;27.13;68.87;97493.69;5003073;28;20038;-61
2023/08/16 10:38:56;;;;;;;11.10;4.60;;;;;;;27.21;70.26;97498.28;4991048;28;20069;-61
2023/08/16 10:41:25;;;;;;;7.18;4.60;;;;;;;27.13;69.80;97494.50;5006035;28;20044;-60
2023/08/16 10:43:53;;;;;;;6.30;4.88;;;;;;;27.03;70.30;97488.66;4985326;28;20126;-60
2023/08/16 10:46:35;;;;;;;7.93;5.05;;;;;;;26.80;70.72;97487.31;4978330;28;20071;-60
2023/08/16 10:49:06;;;;;;;7.47;4.53;;;;;;;26.88;72.11;97488.28;4995905;28;20049;-61
2023/08/16 10:51:43;;;;;;;7.25;4.85;;;;;;;26.93;70.50;97492.78;5002058;28;20039;-60
2023/08/16 10:54:10;;;;;;;7.70;4.50;;;;;;;27.07;70.68;97487.59;4998010;28;20774;-60
2023/08/16 10:56:50;;;;;;;8.55;5.45;;;;;;;27.24;71.19;97491.97;5022419;28;20470;-61
2023/08/16 10:59:17;;;;;;;6.60;4.60;;;;;;;27.20;70.00;97493.06;4987685;28;20137;-61
2023/08/16 11:01:50;;;;;;;6.75;4.55;;;;;;;27.13;70.56;97486.16;4999118;28;20405;-61
2023/08/16 11:04:17;;;;;;;7.78;4.45;;;;;;;27.19;71.09;97481.13;5002919;28;20291;-60
2023/08/16 11:06:44;;;;;;;6.50;4.22;;;;;;;27.23;69.98;97481.25;5002386;28;20053;-61
2023/08/16 11:09:29;;;;;;;8.73;5.00;;;;;;;27.25;69.53;97476.94;5006320;28;20112;-60
2023/08/16 11:12:00;;;;;;;7.82;4.50;;;;;;;27.28;69.34;97478.19;4988753;28;20058;-60
2023/08/16 11:14:26;;;;;;;7.63;4.40;;;;;;;27.37;69.44;97473.22;4960400;28;20047;-61
2023/08/16 11:16:56;;;;;;;6.03;4.45;;;;;;;27.52;67.79;97467.97;5009023;28;20033;-62
2023/08/16 11:19:23;;;;;;;9.90;4.93;;;;;;;27.34;68.84;97464.81;5012907;28;20044;-61
2023/08/16 11:21:51;;;;;;;7.78;4.20;;;;;;;27.50;66.48;97475.88;5001590;28;20046;-61
2023/08/16 11:24:18;;;;;;;8.68;3.85;;;;;;;27.69;66.20;97471.56;5020789;28;20055;-60
2023/08/16 11:26:45;;;;;;;7.85;4.80;;;;;;;27.82;66.91;97472.25;5008715;28;20044;-61
2023/08/16 11:29:11;;;;;;;11.25;4.55;;;;;;;28.02;66.77;97464.69;4980823;28;20074;-61
2023/08/16 11:31:38;;;;;;;7.50;4.68;;;;;;;28.11;64.45;97467.28;5002658;28;20157;-60